Ravenglass, United Kingdom
Current Conditions -  °F | °C
As of 4:50 PM on Sunday 23 Nov 2014 (Local Time) from EGNS Reporting Station
Few Clouds Few Clouds  
Wind Chill:   Ceiling: Unl
Heat Index:   Visibility: 6mi
Dew Point:   Wind: 10mph
Humidity: 71%   Direction: 300°WNW
Pressure: 30.09"   Gusts: NA
Location:  54.36°N, 3.39°W
Report Text: EGNS 231650Z 30009KT 270V340 9999 FEW025 07/02 Q1019 NOSIG
Loading
Personal Weather Stations






























Interactive Weather Map New forecast layout! Learn more

10-Day Weather Forecast

Advertisements
Track Severe Weather on mobile